createdAt,value
2022-12-08T00:00:06.071Z,19.97
2022-12-08T00:02:44.724Z,19.63
2022-12-08T00:05:30.315Z,21.07
2022-12-08T00:08:15.949Z,18.83
2022-12-08T00:10:49.988Z,18.37
2022-12-08T00:13:19.901Z,19.80
2022-12-08T00:15:48.238Z,20.83
2022-12-08T00:18:16.499Z,19.83
2022-12-08T00:20:44.745Z,20.00
2022-12-08T00:23:13.017Z,20.20
2022-12-08T00:25:41.247Z,19.47
2022-12-08T00:28:09.508Z,18.83
2022-12-08T00:30:40.870Z,22.70
2022-12-08T00:33:09.188Z,21.00
2022-12-08T00:35:42.791Z,21.40
2022-12-08T00:38:11.459Z,20.77
2022-12-08T00:40:39.710Z,23.27
2022-12-08T00:43:08.086Z,20.93
2022-12-08T00:45:38.698Z,22.60
2022-12-08T00:48:07.717Z,22.77
2022-12-08T00:50:36.317Z,23.07
2022-12-08T00:53:04.719Z,24.10
2022-12-08T00:55:32.961Z,22.50
2022-12-08T00:58:01.200Z,24.27
2022-12-08T01:00:29.596Z,24.77
2022-12-08T01:02:59.281Z,29.70
2022-12-08T01:05:27.846Z,22.30
2022-12-08T01:07:56.139Z,26.63
2022-12-08T01:10:24.541Z,26.60
2022-12-08T01:12:52.795Z,25.63
2022-12-08T01:15:21.503Z,24.07
2022-12-08T01:17:49.724Z,26.13
2022-12-08T01:20:19.428Z,25.47
2022-12-08T01:22:47.693Z,26.63
2022-12-08T01:25:16.047Z,23.47
2022-12-08T01:27:44.303Z,28.47
2022-12-08T01:30:13.765Z,24.07
2022-12-08T01:32:42.027Z,23.00
2022-12-08T01:35:10.766Z,25.40
2022-12-08T01:37:40.941Z,25.53
2022-12-08T01:40:10.318Z,25.97
2022-12-08T01:42:38.585Z,24.87
2022-12-08T01:45:08.284Z,25.07
2022-12-08T01:47:40.983Z,25.70
2022-12-08T01:50:12.166Z,22.47
2022-12-08T01:52:43.881Z,23.70
2022-12-08T01:55:16.336Z,24.37
2022-12-08T01:57:47.412Z,24.27
2022-12-08T02:00:17.924Z,22.13
2022-12-08T02:02:53.886Z,23.83
2022-12-08T02:05:24.474Z,24.50
2022-12-08T02:07:55.422Z,24.40
2022-12-08T02:10:25.407Z,24.27
2022-12-08T02:12:55.331Z,23.83
2022-12-08T02:15:27.948Z,24.40
2022-12-08T02:18:05.857Z,24.70
2022-12-08T02:20:45.559Z,22.83
2022-12-08T02:23:23.799Z,27.43
2022-12-08T02:26:11.746Z,26.47
2022-12-08T02:28:56.835Z,24.03
2022-12-08T02:31:35.673Z,25.13
2022-12-08T02:34:17.351Z,27.50
2022-12-08T02:36:50.689Z,29.90
2022-12-08T02:39:28.555Z,27.80
2022-12-08T02:42:02.256Z,26.67
2022-12-08T02:44:32.833Z,29.17
2022-12-08T02:47:05.706Z,25.20
2022-12-08T02:49:36.588Z,26.73
2022-12-08T02:52:09.956Z,27.40
2022-12-08T02:54:38.558Z,26.33
2022-12-08T02:57:20.212Z,26.50
2022-12-08T03:00:01.027Z,27.30
2022-12-08T03:02:43.150Z,27.97
2022-12-08T03:05:23.439Z,24.53
2022-12-08T03:07:56.921Z,29.50
2022-12-08T03:10:29.347Z,27.43
2022-12-08T03:13:00.227Z,28.00
2022-12-08T03:15:29.190Z,26.87
2022-12-08T03:17:59.718Z,28.03
2022-12-08T03:20:31.513Z,23.87
2022-12-08T03:23:01.694Z,24.93
2022-12-08T03:25:33.382Z,26.23
2022-12-08T03:28:01.855Z,26.30
2022-12-08T03:30:30.986Z,27.27
2022-12-08T03:33:03.710Z,24.80
2022-12-08T03:35:35.797Z,24.27
2022-12-08T03:38:05.177Z,25.07
2022-12-08T03:40:33.437Z,23.53
2022-12-08T03:43:02.131Z,24.57
2022-12-08T03:45:30.502Z,26.80
2022-12-08T03:47:59.762Z,25.47
2022-12-08T03:50:28.241Z,23.67
2022-12-08T03:52:58.067Z,28.03
2022-12-08T03:55:26.347Z,22.90
2022-12-08T03:57:54.602Z,24.37
2022-12-08T04:00:23.473Z,24.30
2022-12-08T04:02:51.787Z,23.27
2022-12-08T04:05:20.107Z,25.83
2022-12-08T04:07:48.356Z,23.83
2022-12-08T04:10:18.196Z,21.70
2022-12-08T04:12:46.384Z,21.77
2022-12-08T04:15:14.752Z,21.23
2022-12-08T04:17:43.028Z,21.67
2022-12-08T04:20:12.441Z,22.67
2022-12-08T04:22:40.866Z,20.80
2022-12-08T04:25:09.914Z,19.87
2022-12-08T04:27:39.666Z,22.87
2022-12-08T04:30:09.444Z,20.57
2022-12-08T04:32:38.964Z,22.47
2022-12-08T04:35:09.646Z,23.60
2022-12-08T04:37:37.917Z,21.77
2022-12-08T04:40:07.867Z,21.93
2022-12-08T04:42:36.111Z,21.63
2022-12-08T04:45:07.190Z,19.33
2022-12-08T04:47:36.005Z,22.20
2022-12-08T04:50:05.679Z,19.23
2022-12-08T04:52:34.370Z,18.90
2022-12-08T04:55:02.992Z,17.70
2022-12-08T04:57:31.409Z,19.03
2022-12-08T05:00:00.485Z,18.23
2022-12-08T05:02:30.387Z,19.67
2022-12-08T05:04:58.886Z,20.93
2022-12-08T05:07:28.059Z,20.03
2022-12-08T05:09:56.327Z,20.60
2022-12-08T05:12:24.929Z,21.10
2022-12-08T05:14:53.318Z,18.57
2022-12-08T05:17:21.688Z,20.27
2022-12-08T05:19:51.599Z,19.07
2022-12-08T05:22:19.985Z,18.27
2022-12-08T05:24:48.415Z,17.93
2022-12-08T05:27:17.325Z,18.70
2022-12-08T05:29:47.197Z,19.27
2022-12-08T05:32:15.697Z,21.20
2022-12-08T05:34:44.206Z,17.63
2022-12-08T05:37:14.038Z,19.23
2022-12-08T05:39:42.326Z,17.83
2022-12-08T05:42:10.816Z,21.87
2022-12-08T05:44:39.316Z,20.20
2022-12-08T05:47:07.643Z,20.00
2022-12-08T05:49:38.507Z,21.07
2022-12-08T05:52:07.492Z,20.80
2022-12-08T05:54:37.321Z,20.40
2022-12-08T05:57:05.766Z,21.17
2022-12-08T05:59:34.026Z,18.40
2022-12-08T06:02:02.437Z,20.73
2022-12-08T06:04:30.895Z,19.70
2022-12-08T06:06:59.314Z,19.87
2022-12-08T06:09:27.906Z,21.23
2022-12-08T06:11:57.596Z,21.70
2022-12-08T06:14:25.951Z,21.33
2022-12-08T06:16:54.266Z,20.23
2022-12-08T06:19:22.780Z,20.17
2022-12-08T06:21:51.149Z,18.80
2022-12-08T06:24:19.418Z,19.53
2022-12-08T06:26:47.818Z,21.50
2022-12-08T06:29:18.072Z,21.73
2022-12-08T06:31:47.001Z,23.83
2022-12-08T06:34:15.327Z,23.90
2022-12-08T06:36:43.801Z,22.77
2022-12-08T06:39:13.339Z,20.73
2022-12-08T06:41:55.831Z,21.40
2022-12-08T06:44:26.180Z,21.60
2022-12-08T06:46:54.573Z,20.83
2022-12-08T06:49:23.040Z,21.87
2022-12-08T06:51:51.301Z,23.03
2022-12-08T06:54:19.634Z,21.77
2022-12-08T06:56:47.908Z,21.77
2022-12-08T06:59:17.666Z,21.27
2022-12-08T07:01:47.469Z,23.37
2022-12-08T07:04:16.570Z,25.87
2022-12-08T07:06:45.116Z,21.60
2022-12-08T07:09:13.476Z,22.43
2022-12-08T07:11:42.176Z,25.00
2022-12-08T07:14:10.978Z,30.43
2022-12-08T07:16:39.615Z,26.30
2022-12-08T07:19:09.365Z,23.90
2022-12-08T07:21:37.717Z,24.47
2022-12-08T07:24:06.866Z,23.40
2022-12-08T07:26:35.392Z,25.80
2022-12-08T07:29:03.833Z,27.17
2022-12-08T07:31:32.334Z,24.70
2022-12-08T07:34:00.891Z,24.07
2022-12-08T07:36:30.686Z,24.70
2022-12-08T07:39:00.168Z,24.93
2022-12-08T07:41:28.499Z,21.67
2022-12-08T07:43:57.524Z,22.70
2022-12-08T07:46:26.777Z,22.70
2022-12-08T07:48:55.878Z,25.27
2022-12-08T07:51:24.983Z,26.03
2022-12-08T07:53:55.378Z,23.57
2022-12-08T07:56:24.373Z,25.43
2022-12-08T07:58:52.998Z,20.90
2022-12-08T08:01:23.224Z,24.60
2022-12-08T08:03:51.937Z,22.70
2022-12-08T08:06:20.232Z,23.37
2022-12-08T08:08:48.815Z,22.80
2022-12-08T08:11:21.315Z,22.63
2022-12-08T08:13:50.219Z,23.73
2022-12-08T08:16:19.750Z,25.60
2022-12-08T08:18:49.023Z,23.40
2022-12-08T08:24:06.797Z,20.77
2022-12-08T08:26:38.258Z,19.70
2022-12-08T08:29:06.581Z,23.57
2022-12-08T08:31:34.903Z,22.47
2022-12-08T08:34:06.343Z,21.10
2022-12-08T08:36:34.899Z,21.47
2022-12-08T08:39:03.927Z,21.13
2022-12-08T08:41:32.394Z,22.10
2022-12-08T08:44:02.272Z,22.07
2022-12-08T08:46:30.642Z,21.67
2022-12-08T08:48:59.367Z,18.60
2022-12-08T08:51:27.818Z,21.97
2022-12-08T08:53:56.202Z,20.80
2022-12-08T08:56:24.619Z,21.83
2022-12-08T08:58:54.340Z,21.17
2022-12-08T09:01:25.746Z,23.70
2022-12-08T09:03:55.286Z,25.47
2022-12-08T09:06:24.827Z,23.50
2022-12-08T09:08:53.552Z,22.63
2022-12-08T09:11:23.693Z,21.50
2022-12-08T09:13:55.541Z,21.60
2022-12-08T09:16:25.880Z,23.30
2022-12-08T09:18:54.297Z,22.60
2022-12-08T09:21:25.907Z,22.00
2022-12-08T09:23:56.351Z,19.73
2022-12-08T09:26:24.847Z,22.37
2022-12-08T09:28:54.132Z,22.73
2022-12-08T09:31:23.848Z,22.80
2022-12-08T09:33:53.832Z,24.03
2022-12-08T09:36:22.772Z,22.10
2022-12-08T09:38:53.606Z,22.30
2022-12-08T09:41:30.822Z,21.30
2022-12-08T09:44:08.877Z,20.83
2022-12-08T09:46:38.973Z,21.90
2022-12-08T09:49:14.386Z,23.03
2022-12-08T09:51:43.435Z,21.43
2022-12-08T09:54:16.290Z,20.50
2022-12-08T09:56:44.789Z,20.20
2022-12-08T09:59:24.379Z,20.50
2022-12-08T10:01:53.138Z,21.23
2022-12-08T10:04:25.748Z,21.97
2022-12-08T10:07:04.984Z,21.50
2022-12-08T10:09:39.359Z,21.80
2022-12-08T10:12:15.201Z,21.57
2022-12-08T10:14:44.929Z,22.00
2022-12-08T10:17:20.110Z,21.77
2022-12-08T10:19:51.075Z,21.97
2022-12-08T10:22:23.295Z,23.50
2022-12-08T10:25:00.420Z,22.03
2022-12-08T10:27:29.683Z,20.13
2022-12-08T10:29:58.166Z,19.90
2022-12-08T10:32:27.264Z,20.67
2022-12-08T10:35:07.192Z,21.70
2022-12-08T10:37:35.516Z,22.43
2022-12-08T10:40:10.388Z,22.20
2022-12-08T10:42:40.816Z,23.63
2022-12-08T10:45:22.234Z,20.40
2022-12-08T10:47:58.717Z,19.40
2022-12-08T10:50:34.390Z,24.83
2022-12-08T10:53:04.694Z,25.17
2022-12-08T10:55:42.505Z,22.63
2022-12-08T10:58:29.279Z,23.20
2022-12-08T11:01:00.238Z,21.63
2022-12-08T11:03:31.097Z,20.43
2022-12-08T11:06:09.011Z,22.20
2022-12-08T11:08:48.173Z,22.37
2022-12-08T11:11:17.040Z,21.17
2022-12-08T11:13:45.785Z,25.40
2022-12-08T11:16:16.362Z,25.13
2022-12-08T11:18:48.230Z,20.73
2022-12-08T11:21:19.600Z,19.90
2022-12-08T11:23:49.628Z,23.37
2022-12-08T11:26:23.115Z,22.60
2022-12-08T11:28:51.708Z,22.30
2022-12-08T11:31:26.677Z,22.60
2022-12-08T11:33:55.057Z,21.97
2022-12-08T11:36:27.110Z,20.80
2022-12-08T11:38:58.435Z,22.87
2022-12-08T11:41:29.913Z,22.13
2022-12-08T11:44:06.242Z,22.63
2022-12-08T11:46:39.645Z,18.77
2022-12-08T11:49:12.056Z,21.67
2022-12-08T11:51:48.429Z,20.23
2022-12-08T11:54:24.451Z,19.20
2022-12-08T11:56:57.164Z,20.37
2022-12-08T11:59:30.834Z,20.90
2022-12-08T12:02:00.393Z,19.80
2022-12-08T12:04:32.355Z,18.00
2022-12-08T12:07:26.497Z,22.30
2022-12-08T12:10:20.990Z,22.03
2022-12-08T12:13:00.636Z,22.10
2022-12-08T12:16:04.305Z,21.40
2022-12-08T12:18:35.696Z,20.50
2022-12-08T12:21:09.016Z,22.10
2022-12-08T12:23:42.767Z,20.03
2022-12-08T12:26:19.845Z,22.37
2022-12-08T12:28:52.694Z,22.20
2022-12-08T12:31:24.662Z,20.73
2022-12-08T12:33:55.606Z,19.10
2022-12-08T12:36:26.244Z,20.00
2022-12-08T12:39:06.378Z,20.20
2022-12-08T12:41:44.701Z,22.17
2022-12-08T12:44:43.638Z,21.33
2022-12-08T12:47:16.536Z,21.87
2022-12-08T12:50:07.727Z,18.93
2022-12-08T12:52:41.284Z,19.50
2022-12-08T12:55:29.490Z,18.60
2022-12-08T12:57:59.367Z,20.40
2022-12-08T13:00:28.767Z,20.87
2022-12-08T13:02:59.308Z,19.30
2022-12-08T13:05:29.164Z,19.67
2022-12-08T13:08:00.549Z,19.97
2022-12-08T13:10:32.854Z,19.33
2022-12-08T13:13:08.287Z,17.60
2022-12-08T13:15:38.410Z,18.17
2022-12-08T13:18:07.474Z,17.80
2022-12-08T13:20:43.515Z,18.60
2022-12-08T13:23:28.454Z,17.80
2022-12-08T13:26:22.586Z,18.53
2022-12-08T13:29:24.587Z,18.80
2022-12-08T13:31:54.372Z,16.27
2022-12-08T13:34:37.169Z,16.40
2022-12-08T13:37:20.369Z,15.63
2022-12-08T13:39:52.778Z,16.23
2022-12-08T13:42:26.663Z,14.10
2022-12-08T13:45:48.775Z,13.40
2022-12-08T13:52:29.491Z,14.27
2022-12-08T13:54:42.510Z,13.70
2022-12-08T13:59:28.246Z,12.67
2022-12-08T14:01:58.604Z,11.77
2022-12-08T14:04:54.337Z,11.57
2022-12-08T14:07:16.265Z,11.40
2022-12-08T14:09:44.782Z,13.13
2022-12-08T14:12:19.915Z,12.33
2022-12-08T14:15:06.529Z,12.93
2022-12-08T14:17:35.167Z,13.53
2022-12-08T14:20:06.736Z,14.77
2022-12-08T14:22:36.665Z,16.40
2022-12-08T14:25:06.729Z,14.47
2022-12-08T14:27:36.971Z,13.57
2022-12-08T14:30:08.462Z,14.17
2022-12-08T14:32:40.177Z,16.23
2022-12-08T14:35:21.841Z,14.93
2022-12-08T14:37:52.116Z,13.57
2022-12-08T14:40:24.224Z,13.33
2022-12-08T14:42:55.555Z,15.83
2022-12-08T14:45:25.584Z,15.00
2022-12-08T14:47:54.114Z,12.93
2022-12-08T14:50:41.252Z,14.37
2022-12-08T14:53:18.085Z,14.83
2022-12-08T14:55:48.836Z,14.00
2022-12-08T14:58:24.155Z,13.97
2022-12-08T15:00:58.435Z,14.10
2022-12-08T15:03:29.036Z,11.77
2022-12-08T15:05:59.879Z,16.00
2022-12-08T15:08:28.382Z,15.83
2022-12-08T15:11:26.492Z,15.80
2022-12-08T15:13:56.213Z,15.17
2022-12-08T15:16:32.266Z,16.97
2022-12-08T15:19:17.031Z,15.80
2022-12-08T15:21:47.961Z,16.47
2022-12-08T15:24:17.000Z,17.50
2022-12-08T15:26:47.760Z,14.03
2022-12-08T15:29:21.825Z,15.30
2022-12-08T15:31:52.676Z,14.77
2022-12-08T15:34:21.883Z,14.67
2022-12-08T15:36:51.939Z,16.87
2022-12-08T15:39:32.126Z,15.83
2022-12-08T15:42:02.550Z,14.47
2022-12-08T15:44:33.098Z,15.57
2022-12-08T15:47:03.123Z,14.40
2022-12-08T15:49:31.562Z,16.23
2022-12-08T15:52:10.753Z,15.70
2022-12-08T15:54:40.057Z,15.70
2022-12-08T15:57:20.217Z,14.77
2022-12-08T15:59:50.987Z,15.30
2022-12-08T16:02:22.808Z,15.23
2022-12-08T16:07:41.563Z,14.97
2022-12-08T16:10:12.673Z,16.70
2022-12-08T16:15:59.278Z,15.87
2022-12-08T16:18:33.232Z,15.67
2022-12-08T16:21:45.552Z,16.63
2022-12-08T16:23:50.437Z,16.23
2022-12-08T16:27:22.110Z,17.03
2022-12-08T16:29:12.390Z,16.30
2022-12-08T16:31:41.219Z,15.60
2022-12-08T16:34:11.427Z,17.10
2022-12-08T16:36:39.849Z,16.37
2022-12-08T16:39:09.468Z,15.63
2022-12-08T16:41:55.779Z,15.93
2022-12-08T16:44:24.522Z,16.40
2022-12-08T16:46:53.032Z,16.00
2022-12-08T16:49:24.253Z,17.50
2022-12-08T16:51:55.376Z,16.57
2022-12-08T16:54:24.456Z,18.20
2022-12-08T16:56:53.793Z,15.73
2022-12-08T16:59:22.566Z,17.73
2022-12-08T17:01:51.215Z,15.93
2022-12-08T17:04:34.894Z,17.10
2022-12-08T17:07:05.001Z,17.30
2022-12-08T17:09:33.675Z,17.40
2022-12-08T17:12:04.410Z,17.30
2022-12-08T17:14:35.172Z,18.00
2022-12-08T17:17:04.748Z,17.87
2022-12-08T17:19:34.750Z,19.53
2022-12-08T17:22:04.849Z,20.03
2022-12-08T17:24:33.327Z,18.20
2022-12-08T17:27:04.299Z,19.30
2022-12-08T17:29:34.083Z,20.07
2022-12-08T17:32:02.998Z,19.50
2022-12-08T17:34:31.910Z,19.57
2022-12-08T17:37:01.729Z,15.87
2022-12-08T17:39:33.183Z,17.63
2022-12-08T17:42:02.690Z,17.03
2022-12-08T17:44:31.210Z,17.30
2022-12-08T17:47:01.161Z,16.80
2022-12-08T17:49:31.361Z,18.43
2022-12-08T17:52:01.779Z,18.57
2022-12-08T17:54:33.046Z,19.73
2022-12-08T17:57:03.100Z,19.70
2022-12-08T17:59:32.286Z,18.80
2022-12-08T18:02:01.577Z,18.07
2022-12-08T18:04:32.085Z,19.30
2022-12-08T18:07:03.585Z,18.03
2022-12-08T18:09:35.793Z,18.30
2022-12-08T18:12:05.963Z,18.90
2022-12-08T18:14:34.987Z,20.00
2022-12-08T18:17:04.302Z,17.47
2022-12-08T18:19:33.035Z,18.57
2022-12-08T18:22:02.233Z,18.43
2022-12-08T18:24:31.961Z,17.60
2022-12-08T18:27:06.453Z,16.50
2022-12-08T18:29:36.471Z,19.97
2022-12-08T18:32:10.262Z,18.50
2022-12-08T18:34:41.617Z,18.53
2022-12-08T18:37:12.475Z,17.57
2022-12-08T18:39:41.312Z,18.03
2022-12-08T18:42:25.558Z,18.20
2022-12-08T18:45:07.968Z,19.57
2022-12-08T18:47:40.054Z,19.80
2022-12-08T18:50:11.593Z,21.47
2022-12-08T18:52:42.157Z,20.30
2022-12-08T18:55:12.585Z,22.50
2022-12-08T18:57:47.286Z,20.10
2022-12-08T19:00:18.749Z,20.33
2022-12-08T19:02:48.908Z,19.03
2022-12-08T19:05:18.528Z,21.23
2022-12-08T19:07:52.674Z,21.73
2022-12-08T19:10:23.385Z,20.43
2022-12-08T19:12:56.344Z,22.00
2022-12-08T19:15:26.720Z,22.23
2022-12-08T19:17:56.641Z,19.90
2022-12-08T19:20:34.635Z,18.93
2022-12-08T19:23:12.366Z,17.87
2022-12-08T19:25:43.655Z,19.20
2022-12-08T19:28:16.398Z,17.37
2022-12-08T19:30:48.538Z,15.40
2022-12-08T19:33:20.230Z,15.53
2022-12-08T19:35:52.725Z,15.57
2022-12-08T19:38:22.874Z,16.47
2022-12-08T19:41:10.094Z,10.77
2022-12-08T19:44:14.183Z,14.37
2022-12-08T19:46:44.400Z,13.40
2022-12-08T19:49:19.376Z,12.20
2022-12-08T19:51:53.432Z,13.87
2022-12-08T19:54:23.713Z,12.70
2022-12-08T19:56:55.062Z,14.67
2022-12-08T19:59:29.079Z,11.80
2022-12-08T20:02:01.141Z,14.73
2022-12-08T20:04:36.963Z,14.40
2022-12-08T20:07:06.018Z,14.30
2022-12-08T20:09:35.770Z,15.73
2022-12-08T20:12:10.121Z,14.90
2022-12-08T20:14:46.387Z,14.17
2022-12-08T20:17:20.372Z,13.30
2022-12-08T20:19:51.288Z,13.00
2022-12-08T20:22:32.794Z,14.90
2022-12-08T20:25:03.152Z,14.73
2022-12-08T20:27:35.682Z,15.00
2022-12-08T20:30:16.761Z,13.87
2022-12-08T20:32:58.756Z,13.20
2022-12-08T20:35:29.677Z,14.07
2022-12-08T20:38:00.039Z,14.30
2022-12-08T20:40:35.252Z,14.57
2022-12-08T20:43:09.511Z,15.80
2022-12-08T20:45:42.014Z,16.00
2022-12-08T20:48:26.242Z,14.00
2022-12-08T20:51:01.525Z,14.10
2022-12-08T20:53:35.012Z,13.70
2022-12-08T20:56:05.550Z,13.93
2022-12-08T20:58:41.213Z,14.20
2022-12-08T21:01:12.891Z,15.77
2022-12-08T21:03:44.123Z,14.33
2022-12-08T21:06:13.433Z,15.00
2022-12-08T21:08:43.380Z,14.80
2022-12-08T21:11:11.994Z,13.53
2022-12-08T21:13:43.469Z,15.57
2022-12-08T21:16:15.614Z,14.93
2022-12-08T21:18:45.215Z,17.30
2022-12-08T21:21:15.833Z,15.50
2022-12-08T21:23:44.710Z,14.30
2022-12-08T21:26:15.298Z,15.13
2022-12-08T21:28:44.140Z,14.87
2022-12-08T21:31:17.621Z,14.63
2022-12-08T21:33:47.095Z,15.93
2022-12-08T21:36:18.048Z,14.20
2022-12-08T21:38:47.615Z,13.83
2022-12-08T21:41:37.644Z,15.30
2022-12-08T21:44:06.652Z,15.33
2022-12-08T21:46:37.211Z,15.70
2022-12-08T21:49:06.384Z,16.20
2022-12-08T21:51:37.887Z,15.70
2022-12-08T21:54:06.435Z,16.80
2022-12-08T21:56:35.173Z,18.60
2022-12-08T21:59:03.565Z,16.23
2022-12-08T22:01:33.554Z,16.30
2022-12-08T22:04:04.572Z,17.50
2022-12-08T22:06:34.635Z,17.37
2022-12-08T22:09:03.208Z,16.47
2022-12-08T22:11:31.868Z,16.90
2022-12-08T22:14:12.560Z,15.70
2022-12-08T22:16:43.223Z,15.30
2022-12-08T22:19:14.606Z,16.33
2022-12-08T22:21:43.222Z,16.60
2022-12-08T22:24:12.203Z,16.30
2022-12-08T22:26:40.666Z,15.80
2022-12-08T22:29:09.944Z,15.57
2022-12-08T22:31:38.683Z,15.93
2022-12-08T22:34:07.451Z,13.97
2022-12-08T22:36:37.440Z,14.70
2022-12-08T22:39:06.640Z,13.43
2022-12-08T22:41:35.141Z,15.20
2022-12-08T22:44:06.609Z,14.67
2022-12-08T22:46:35.303Z,15.90
2022-12-08T22:49:03.957Z,16.60
2022-12-08T22:51:33.197Z,15.73
2022-12-08T22:54:02.975Z,13.63
2022-12-08T22:56:32.078Z,15.27
2022-12-08T22:59:00.555Z,13.83
2022-12-08T23:01:30.905Z,14.40
2022-12-08T23:04:00.305Z,12.83
2022-12-08T23:06:31.752Z,13.93
2022-12-08T23:09:00.672Z,14.47
2022-12-08T23:11:31.875Z,14.07
2022-12-08T23:14:01.221Z,15.53
2022-12-08T23:16:29.628Z,14.50
2022-12-08T23:18:58.107Z,15.70
2022-12-08T23:21:26.462Z,15.07
2022-12-08T23:23:55.140Z,14.03
2022-12-08T23:26:25.459Z,15.00
2022-12-08T23:28:55.661Z,14.67
2022-12-08T23:31:24.849Z,15.30
2022-12-08T23:33:54.241Z,13.63
2022-12-08T23:36:26.283Z,13.57
2022-12-08T23:38:54.960Z,14.93
2022-12-08T23:41:24.046Z,14.13
2022-12-08T23:43:54.578Z,15.30
2022-12-08T23:46:23.719Z,14.97
2022-12-08T23:48:52.804Z,13.90
2022-12-08T23:51:22.032Z,14.50
2022-12-08T23:53:50.410Z,13.47
2022-12-08T23:56:19.359Z,14.40
2022-12-08T23:58:47.979Z,15.07
